Time;durP1;ratioP1;P1;durP2;ratioP2;P2;SDS_P1;SDS_P2;PMS_P1;PMS_P2;Temp;Humidity;BMP_temperature;BMP_pressure;BME280_temperature;BME280_humidity;BME280_pressure;Samples;Min_cycle;Max_cycle;Signal;HPM_P1;HPM_P2
2022/02/23 00:00:22;;;;;;;6.67;2.17;;;;;;;3.48;100.00;102012.44;2010667;29;20021;-61
2022/02/23 00:01:23;;;;;;;10.80;1.93;;;;;;;3.46;100.00;102008.94;2010651;29;20061;-61
2022/02/23 00:02:23;;;;;;;11.23;1.90;;;;;;;3.48;100.00;102011.56;2010675;29;20290;-61
2022/02/23 00:03:23;;;;;;;10.30;1.87;;;;;;;3.45;100.00;102017.56;2010715;29;20109;-61
2022/02/23 00:04:23;;;;;;;8.53;1.73;;;;;;;3.45;100.00;102017.56;2010741;29;20027;-61
2022/02/23 00:05:24;;;;;;;10.03;2.40;;;;;;;3.45;100.00;102019.25;2010716;29;20564;-60
2022/02/23 00:06:25;;;;;;;5.85;1.70;;;;;;;3.44;100.00;102025.28;2010589;29;20060;-60
2022/02/23 00:07:25;;;;;;;6.45;1.35;;;;;;;3.44;100.00;102025.28;2010632;29;20399;-60
2022/02/23 00:08:25;;;;;;;12.13;1.70;;;;;;;3.39;100.00;102027.00;2010644;29;20090;-61
2022/02/23 00:09:26;;;;;;;5.87;1.60;;;;;;;3.34;100.00;102029.53;2010704;29;20029;-61
2022/02/23 00:10:26;;;;;;;7.83;1.50;;;;;;;3.35;100.00;102020.94;2010624;29;20080;-60
2022/02/23 00:11:26;;;;;;;10.03;1.53;;;;;;;3.35;100.00;102032.13;2010650;29;20050;-61
2022/02/23 00:12:27;;;;;;;10.80;2.00;;;;;;;3.34;100.00;102024.38;2010617;29;20030;-60
2022/02/23 00:13:27;;;;;;;11.47;2.83;;;;;;;3.28;100.00;102025.19;2010567;29;20029;-61
2022/02/23 00:14:28;;;;;;;8.32;2.05;;;;;;;3.25;100.00;102032.91;2010678;29;20517;-61
2022/02/23 00:15:28;;;;;;;6.00;2.20;;;;;;;3.31;100.00;102032.06;2010641;29;20090;-61
2022/02/23 00:16:28;;;;;;;15.80;2.67;;;;;;;3.33;100.00;102038.13;2017581;29;20045;-61
2022/02/23 00:17:28;;;;;;;12.10;2.53;;;;;;;3.28;100.00;102035.50;2017718;29;20036;-61
2022/02/23 00:18:29;;;;;;;5.40;1.63;;;;;;;3.25;100.00;102040.63;2010580;29;20496;-61
2022/02/23 00:19:29;;;;;;;7.27;1.77;;;;;;;3.19;100.00;102036.28;2010540;29;20064;-60
2022/02/23 00:20:29;;;;;;;8.37;2.37;;;;;;;3.16;100.00;102030.25;2010533;29;20049;-61
2022/02/23 00:21:29;;;;;;;7.97;1.83;;;;;;;3.19;100.00;102035.44;2010560;29;20440;-61
2022/02/23 00:22:32;;;;;;;10.20;2.27;;;;;;;3.17;100.00;102038.00;2010521;29;20157;-61
2022/02/23 00:23:32;;;;;;;12.32;3.90;;;;;;;3.14;100.00;102037.97;2010515;29;20399;-60
2022/02/23 00:24:33;;;;;;;10.83;1.90;;;;;;;3.16;100.00;102040.56;2010574;29;20025;-61
2022/02/23 00:25:33;;;;;;;9.50;1.67;;;;;;;3.12;100.00;102038.81;2010414;29;20506;-60
2022/02/23 00:26:34;;;;;;;6.63;1.97;;;;;;;3.17;100.00;102038.00;2010512;29;20468;-60
2022/02/23 00:27:36;;;;;;;8.85;1.50;;;;;;;3.19;100.00;102045.78;2010633;29;20056;-61
2022/02/23 00:28:36;;;;;;;9.50;2.75;;;;;;;3.17;100.00;102042.28;2012104;29;20100;-62
2022/02/23 00:29:36;;;;;;;11.00;2.37;;;;;;;3.12;100.00;102046.56;2012069;29;20486;-62
2022/02/23 00:30:37;;;;;;;11.90;2.40;;;;;;;3.05;100.00;102043.91;2012124;29;20104;-60
2022/02/23 00:31:37;;;;;;;8.03;2.67;;;;;;;3.00;100.00;102044.72;2012110;29;20033;-61
2022/02/23 00:32:37;;;;;;;12.93;1.77;;;;;;;2.98;100.00;102046.44;2012117;29;20025;-61
2022/02/23 00:33:38;;;;;;;17.83;2.40;;;;;;;2.92;100.00;102048.13;2012048;29;20029;-61
2022/02/23 00:34:38;;;;;;;9.00;1.80;;;;;;;2.88;100.00;102045.50;2012103;29;20476;-60
2022/02/23 00:35:38;;;;;;;4.57;1.57;;;;;;;2.86;100.00;102047.19;2012061;29;20146;-61
2022/02/23 00:36:38;;;;;;;8.57;2.00;;;;;;;2.86;100.00;102036.88;2011953;29;20108;-60
2022/02/23 00:37:39;;;;;;;9.47;2.57;;;;;;;2.89;100.00;102044.66;2012058;29;20500;-61
2022/02/23 00:38:39;;;;;;;6.70;1.43;;;;;;;2.87;100.00;102047.22;2019158;29;20521;-60
2022/02/23 00:39:39;;;;;;;7.93;2.33;;;;;;;2.89;100.00;102045.53;2019169;29;20104;-60
2022/02/23 00:40:40;;;;;;;8.23;3.27;;;;;;;2.85;100.00;102046.34;2012082;29;20035;-61
2022/02/23 00:41:41;;;;;;;9.48;1.77;;;;;;;2.83;100.00;102045.44;2012103;29;20289;-60
2022/02/23 00:42:41;;;;;;;11.97;2.30;;;;;;;2.89;100.00;102052.38;2012097;29;20460;-61
2022/02/23 00:43:41;;;;;;;14.93;3.47;;;;;;;2.90;100.00;102054.09;2012099;29;20368;-60
2022/02/23 00:44:42;;;;;;;8.20;1.87;;;;;;;2.90;100.00;102056.69;2012093;29;20053;-60
2022/02/23 00:45:42;;;;;;;8.90;2.27;;;;;;;2.85;100.00;102055.78;2012060;29;20024;-61
2022/02/23 00:46:42;;;;;;;5.30;3.90;;;;;;;2.82;100.00;102056.63;2012045;29;20104;-61
2022/02/23 00:47:43;;;;;;;11.80;2.70;;;;;;;2.81;100.00;102060.91;2011868;29;20175;-61
2022/02/23 00:48:43;;;;;;;9.03;1.63;;;;;;;2.81;100.00;102060.91;2012020;29;20286;-61
2022/02/23 00:49:43;;;;;;;10.07;3.23;;;;;;;2.80;100.00;102055.72;2011964;29;20391;-61
2022/02/23 00:50:44;;;;;;;10.30;2.67;;;;;;;2.78;100.00;102060.91;2012036;29;20082;-61
2022/02/23 00:51:44;;;;;;;9.87;2.67;;;;;;;2.75;100.00;102066.03;2012002;29;20028;-60
2022/02/23 00:52:44;;;;;;;7.40;1.97;;;;;;;2.70;100.00;102062.50;2012036;29;20026;-60
2022/02/23 00:53:44;;;;;;;8.87;3.23;;;;;;;2.66;100.00;102060.75;2011967;29;20100;-60
2022/02/23 00:54:45;;;;;;;8.23;1.70;;;;;;;2.68;100.00;102064.22;2019025;29;20123;-61
2022/02/23 00:55:45;;;;;;;7.70;1.57;;;;;;;2.70;100.00;102065.09;2019036;29;20031;-62
2022/02/23 00:56:47;;;;;;;9.73;2.03;;;;;;;2.70;100.00;102067.66;2011938;29;20365;-62
2022/02/23 00:57:47;;;;;;;6.05;2.03;;;;;;;2.70;100.00;102067.66;2018963;29;20103;-61
2022/02/23 00:58:47;;;;;;;7.27;1.70;;;;;;;2.69;100.00;102076.25;2011345;29;20484;-62
2022/02/23 00:59:48;;;;;;;7.03;1.80;;;;;;;2.65;100.00;102074.50;2011375;29;20527;-62
2022/02/23 01:00:48;;;;;;;19.27;3.37;;;;;;;2.62;100.00;102071.88;2011950;29;20029;-62
2022/02/23 01:01:48;;;;;;;6.83;1.53;;;;;;;2.65;100.00;102067.63;2011927;29;20030;-62
2022/02/23 01:02:48;;;;;;;11.07;2.23;;;;;;;2.67;100.00;102077.97;2011985;29;20510;-61
2022/02/23 01:03:49;;;;;;;8.33;1.80;;;;;;;2.63;100.00;102076.22;2011948;29;20033;-60
2022/02/23 01:04:49;;;;;;;5.07;1.57;;;;;;;2.57;100.00;102077.84;2012018;29;20037;-60
2022/02/23 01:05:49;;;;;;;11.73;2.47;;;;;;;2.54;100.00;102077.81;2011898;29;20029;-61
2022/02/23 01:06:50;;;;;;;7.67;1.70;;;;;;;2.54;100.00;102082.13;2011913;29;20292;-61
2022/02/23 01:07:50;;;;;;;8.77;1.70;;;;;;;2.57;100.00;102083.00;2011897;29;20018;-60
2022/02/23 01:08:50;;;;;;;16.67;6.00;;;;;;;2.56;100.00;102081.28;2011937;29;20501;-60
2022/02/23 01:09:51;;;;;;;7.07;2.17;;;;;;;2.53;100.00;102081.25;2011943;29;20077;-60
2022/02/23 01:10:51;;;;;;;11.67;2.33;;;;;;;2.52;100.00;102083.81;2011928;29;20051;-60
2022/02/23 01:11:51;;;;;;;8.07;1.97;;;;;;;2.49;100.00;102087.22;2011861;29;20033;-60
2022/02/23 01:12:52;;;;;;;9.00;2.03;;;;;;;2.48;100.00;102082.91;2011917;29;20543;-60
2022/02/23 01:13:53;;;;;;;6.50;2.33;;;;;;;2.46;100.00;102088.91;2011118;29;20060;-60
2022/02/23 01:14:53;;;;;;;7.67;1.50;;;;;;;2.41;100.00;102084.56;2011296;29;20053;-60
2022/02/23 01:15:53;;;;;;;9.10;3.63;;;;;;;2.40;100.00;102089.69;2011729;29;20286;-60
2022/02/23 01:16:54;;;;;;;7.70;1.63;;;;;;;2.35;100.00;102092.19;2011866;29;20112;-60
2022/02/23 01:17:54;;;;;;;6.50;1.60;;;;;;;2.36;100.00;102095.66;2011836;29;20495;-60
2022/02/23 01:18:54;;;;;;;12.30;2.43;;;;;;;2.37;100.00;102094.81;2011848;29;20381;-60
2022/02/23 01:19:55;;;;;;;7.87;2.10;;;;;;;2.36;100.00;102098.22;2018817;29;20033;-60
2022/02/23 01:20:55;;;;;;;7.83;1.87;;;;;;;2.31;100.00;102101.63;2018965;29;20107;-60
2022/02/23 01:21:55;;;;;;;7.23;2.03;;;;;;;2.33;100.00;102098.19;2011845;29;20029;-60
2022/02/23 01:22:57;;;;;;;9.67;1.87;;;;;;;2.31;100.00;102095.59;2011842;29;20026;-60
2022/02/23 01:23:57;;;;;;;;;;;;;;;2.31;100.00;102099.03;2012214;29;20040;-61
2022/02/23 01:24:57;;;;;;;7.18;1.70;;;;;;;2.26;100.00;102103.25;2012017;29;19943;-60
2022/02/23 01:25:57;;;;;;;7.30;1.67;;;;;;;2.25;100.00;102105.81;2011129;29;20498;-61
2022/02/23 01:26:59;;;;;;;10.90;2.00;;;;;;;2.25;100.00;102101.53;2011226;29;20026;-61
2022/02/23 01:28:02;;;;;;;10.10;2.53;;;;;;;2.22;100.00;102104.06;2011754;29;20403;-60
2022/02/23 01:29:03;;;;;;;9.40;2.00;;;;;;;2.21;100.00;102104.91;2011095;29;20492;-61
2022/02/23 01:30:05;;;;;;;6.77;1.67;;;;;;;2.23;100.00;102108.38;2011137;29;20029;-60
2022/02/23 01:31:05;;;;;;;6.60;1.90;;;;;;;2.25;100.00;102106.69;2011731;29;20025;-60
2022/02/23 01:32:06;;;;;;;8.50;1.97;;;;;;;2.26;100.00;102108.41;2011762;29;20084;-60
2022/02/23 01:33:06;;;;;;;6.40;1.70;;;;;;;2.25;100.00;102109.25;2011793;29;20039;-61
2022/02/23 01:34:06;;;;;;;12.93;2.90;;;;;;;2.26;100.00;102108.41;2011743;29;20021;-61
2022/02/23 01:35:07;;;;;;;8.53;1.97;;;;;;;2.27;100.00;102105.00;2018748;29;20483;-61
2022/02/23 01:36:07;;;;;;;9.03;2.13;;;;;;;2.30;100.00;102106.75;2018762;29;20036;-60
2022/02/23 01:37:07;;;;;;;5.67;2.20;;;;;;;2.28;100.00;102111.00;2011716;29;20368;-61
2022/02/23 01:38:08;;;;;;;5.40;1.83;;;;;;;2.26;100.00;102110.97;2011647;29;20033;-61
2022/02/23 01:39:08;;;;;;;7.17;2.80;;;;;;;2.25;100.00;102106.69;2010842;29;20036;-61
2022/02/23 01:40:09;;;;;;;4.77;1.97;;;;;;;2.23;100.00;102105.81;2011273;29;20286;-60
2022/02/23 01:41:10;;;;;;;8.80;1.80;;;;;;;2.25;100.00;102110.97;2011801;29;20070;-61
2022/02/23 01:42:11;;;;;;;8.63;1.80;;;;;;;2.26;100.00;102107.56;2011705;29;20014;-61
2022/02/23 01:43:12;;;;;;;7.25;1.92;;;;;;;2.33;100.00;102103.34;2011677;29;20022;-61
2022/02/23 01:44:12;;;;;;;13.73;2.10;;;;;;;2.34;100.00;102110.22;2011672;29;20026;-61
2022/02/23 01:45:12;;;;;;;9.10;2.10;;;;;;;2.30;100.00;102107.59;2018696;29;20025;-61
2022/02/23 01:46:14;;;;;;;9.88;1.92;;;;;;;2.24;100.00;102110.13;2018763;29;20430;-60
2022/02/23 01:47:14;;;;;;;;;;;;;;;2.27;100.00;102099.84;2011911;29;20033;-61
2022/02/23 01:48:14;;;;;;;10.07;2.30;;;;;;;2.31;100.00;102106.78;2011603;29;19964;-61
2022/02/23 01:49:15;;;;;;;16.30;2.67;;;;;;;2.34;100.00;102102.50;2011668;29;20065;-61
2022/02/23 01:50:16;;;;;;;7.67;3.17;;;;;;;2.31;100.00;102111.03;2011598;29;20036;-61
2022/02/23 01:51:16;;;;;;;9.40;2.65;;;;;;;2.29;100.00;102113.59;2011630;29;20029;-62
2022/02/23 01:52:16;;;;;;;5.83;1.90;;;;;;;2.28;100.00;102116.16;2011652;29;20025;-62
2022/02/23 01:53:17;;;;;;;8.70;2.73;;;;;;;2.27;100.00;102120.47;2011604;29;20396;-61
2022/02/23 01:54:18;;;;;;;7.40;2.60;;;;;;;2.22;100.00;102111.78;2011620;29;20081;-61
2022/02/23 01:55:18;;;;;;;10.80;2.27;;;;;;;2.27;100.00;102120.47;2010895;29;20124;-62
2022/02/23 01:56:18;;;;;;;9.47;2.30;;;;;;;2.33;100.00;102113.66;2010911;29;20033;-61
2022/02/23 01:57:19;;;;;;;8.23;1.67;;;;;;;2.33;100.00;102113.66;2011551;29;20061;-61
2022/02/23 01:58:20;;;;;;;7.30;1.85;;;;;;;2.32;100.00;102120.50;2011561;29;20385;-61
2022/02/23 01:59:20;;;;;;;10.70;2.90;;;;;;;2.31;100.00;102121.34;2011596;29;20049;-62
2022/02/23 02:00:20;;;;;;;6.63;1.93;;;;;;;2.35;100.00;102114.50;2011581;29;20021;-61
2022/02/23 02:01:21;;;;;;;11.67;2.80;;;;;;;2.35;100.00;102122.25;2011500;29;20032;-61
2022/02/23 02:02:21;;;;;;;9.00;2.23;;;;;;;2.27;100.00;102120.47;2011457;29;20029;-61
2022/02/23 02:03:21;;;;;;;12.30;2.43;;;;;;;2.26;100.00;102118.72;2011535;29;20475;-61
2022/02/23 02:04:22;;;;;;;9.33;2.47;;;;;;;2.27;100.00;102114.44;2011525;29;20033;-61
2022/02/23 02:05:22;;;;;;;5.63;1.77;;;;;;;2.28;100.00;102117.03;2011509;29;20018;-61
2022/02/23 02:06:22;;;;;;;11.53;1.73;;;;;;;2.37;100.00;102123.16;2011468;29;20476;-61
2022/02/23 02:07:22;;;;;;;8.40;2.10;;;;;;;2.39;100.00;102121.47;2010915;29;20032;-62
2022/02/23 02:08:23;;;;;;;7.80;1.87;;;;;;;2.38;100.00;102122.28;2010924;29;20049;-61
2022/02/23 02:09:23;;;;;;;10.93;2.80;;;;;;;2.34;100.00;102128.25;2011486;29;20160;-61
2022/02/23 02:10:23;;;;;;;4.13;1.77;;;;;;;2.31;100.00;102122.22;2011457;29;20029;-61
2022/02/23 02:11:24;;;;;;;10.60;2.93;;;;;;;2.26;100.00;102123.84;2018471;29;20065;-61
2022/02/23 02:12:24;;;;;;;8.13;2.40;;;;;;;2.30;100.00;102130.78;2018547;29;20603;-61
2022/02/23 02:13:25;;;;;;;12.63;2.92;;;;;;;2.26;100.00;102131.59;2011470;29;20092;-62
2022/02/23 02:14:25;;;;;;;10.00;1.97;;;;;;;2.21;100.00;102134.94;2011404;29;20030;-61
2022/02/23 02:15:25;;;;;;;18.27;5.00;;;;;;;2.19;100.00;102134.97;2011442;29;20475;-61
2022/02/23 02:16:26;;;;;;;4.53;2.00;;;;;;;2.18;100.00;102133.19;2011384;29;20040;-61
2022/02/23 02:17:26;;;;;;;9.10;2.17;;;;;;;2.17;100.00;102136.63;2010795;29;20037;-62
2022/02/23 02:18:27;;;;;;;14.88;3.00;;;;;;;2.13;100.00;102134.88;2010787;29;20052;-61
2022/02/23 02:19:27;;;;;;;9.50;2.27;;;;;;;2.09;100.00;102136.50;2010747;29;20056;-61
2022/02/23 02:20:27;;;;;;;10.17;2.53;;;;;;;2.12;100.00;102139.13;2018524;29;20025;-61
2022/02/23 02:21:29;;;;;;;7.13;2.03;;;;;;;2.11;100.00;102139.09;2011460;29;20351;-61
2022/02/23 02:22:29;;;;;;;8.68;2.08;;;;;;;2.11;100.00;102144.25;2011364;29;20108;-61
2022/02/23 02:23:30;;;;;;;9.32;2.30;;;;;;;2.09;100.00;102140.81;2011431;29;20029;-61
2022/02/23 02:24:33;;;;;;;9.67;2.87;;;;;;;2.05;100.00;102135.63;2011300;29;20032;-60
2022/02/23 02:25:33;;;;;;;10.45;2.08;;;;;;;2.02;100.00;102142.44;2011283;29;20079;-60
2022/02/23 02:26:34;;;;;;;4.80;2.67;;;;;;;2.02;100.00;102148.44;2011206;29;20017;-62
2022/02/23 02:27:34;;;;;;;9.17;2.70;;;;;;;2.03;100.00;102147.63;2011343;29;20511;-61
2022/02/23 02:28:34;;;;;;;6.87;1.67;;;;;;;2.00;100.00;102146.69;2011324;29;20025;-61
2022/02/23 02:29:35;;;;;;;3.30;1.40;;;;;;;2.03;100.00;102147.63;2011345;29;20036;-61
2022/02/23 02:30:36;;;;;;;12.73;2.45;;;;;;;2.10;100.00;102158.00;2011319;29;20035;-61
2022/02/23 02:31:36;;;;;;;9.20;2.30;;;;;;;2.08;100.00;102154.53;2011275;29;20104;-60
2022/02/23 02:32:36;;;;;;;8.37;2.00;;;;;;;2.11;100.00;102157.13;2018337;29;20025;-60
2022/02/23 02:33:36;;;;;;;5.90;1.77;;;;;;;2.09;100.00;102161.41;2010628;29;20033;-60
2022/02/23 02:34:37;;;;;;;5.63;2.93;;;;;;;2.04;100.00;102154.50;2010628;29;20026;-60
2022/02/23 02:35:38;;;;;;;7.88;1.70;;;;;;;2.01;100.00;102154.44;2010767;29;20025;-60
2022/02/23 02:36:39;;;;;;;12.93;3.72;;;;;;;1.95;100.00;102156.91;2010656;29;20030;-60
2022/02/23 02:37:39;;;;;;;7.33;2.00;;;;;;;1.91;100.00;102148.28;2011304;29;20051;-61
2022/02/23 02:38:39;;;;;;;10.10;2.40;;;;;;;1.93;100.00;102151.78;2011191;29;20502;-60
2022/02/23 02:39:40;;;;;;;6.87;1.80;;;;;;;1.92;100.00;102154.31;2011292;29;20030;-60
2022/02/23 02:40:40;;;;;;;10.80;2.13;;;;;;;1.90;100.00;102151.72;2011246;29;20032;-60
2022/02/23 02:41:40;;;;;;;7.80;2.37;;;;;;;1.93;100.00;102161.19;2011297;29;20047;-60
2022/02/23 02:42:41;;;;;;;7.13;1.53;;;;;;;1.95;100.00;102156.91;2011314;29;20053;-60
2022/02/23 02:43:41;;;;;;;11.77;2.00;;;;;;;1.91;100.00;102157.72;2011302;29;20021;-61
2022/02/23 02:44:41;;;;;;;7.43;1.93;;;;;;;1.90;100.00;102158.56;2011251;29;20025;-61
2022/02/23 02:45:41;;;;;;;8.43;1.77;;;;;;;1.93;100.00;102161.19;2011236;29;20057;-60
2022/02/23 02:46:42;;;;;;;10.73;3.00;;;;;;;1.90;100.00;102167.16;2011216;29;20049;-60
2022/02/23 02:47:42;;;;;;;12.60;2.53;;;;;;;1.87;100.00;102168.81;2011165;29;20041;-60
2022/02/23 02:48:42;;;;;;;11.70;2.13;;;;;;;1.82;100.00;102163.63;2011195;29;20021;-61
2022/02/23 02:49:43;;;;;;;11.40;2.60;;;;;;;1.79;100.00;102169.56;2011187;29;20081;-60
2022/02/23 02:50:43;;;;;;;10.20;2.37;;;;;;;1.79;100.00;102176.44;2010728;29;20073;-61
2022/02/23 02:51:43;;;;;;;6.73;1.83;;;;;;;1.78;100.00;102167.81;2011066;29;20022;-60
2022/02/23 02:52:43;;;;;;;10.63;2.03;;;;;;;1.80;100.00;102176.47;2011150;29;20060;-61
2022/02/23 02:53:44;;;;;;;6.97;1.60;;;;;;;1.85;100.00;102163.63;2011111;29;20093;-61
2022/02/23 02:54:44;;;;;;;9.40;1.60;;;;;;;1.83;100.00;102169.59;2011117;29;20538;-61
2022/02/23 02:55:44;;;;;;;4.83;1.60;;;;;;;1.80;100.00;102168.72;2011156;29;20032;-61
2022/02/23 02:56:45;;;;;;;7.07;2.20;;;;;;;1.80;100.00;102170.44;2011026;29;20049;-61
2022/02/23 02:57:45;;;;;;;7.72;2.90;;;;;;;1.78;100.00;102162.69;2011161;29;20025;-61
2022/02/23 02:58:52;;;;;;;12.47;2.27;;;;;;;1.82;100.00;102170.47;2011113;29;20112;-61
2022/02/23 02:59:52;;;;;;;11.95;2.63;;;;;;;1.82;100.00;102167.88;2011093;29;20109;-61
2022/02/23 03:00:52;;;;;;;5.87;1.87;;;;;;;1.89;100.00;102160.25;2018099;29;20499;-60
2022/02/23 03:01:53;;;;;;;8.63;2.73;;;;;;;1.93;100.00;102161.19;2018192;29;20029;-61
2022/02/23 03:02:53;;;;;;;7.03;1.70;;;;;;;1.91;100.00;102168.00;2011149;29;20025;-61
2022/02/23 03:03:53;;;;;;;5.87;1.60;;;;;;;1.85;100.00;102167.94;2010988;29;20483;-61
2022/02/23 03:04:54;;;;;;;11.18;2.25;;;;;;;1.87;100.00;102167.13;2010990;29;20030;-60
2022/02/23 03:05:54;;;;;;;7.40;1.70;;;;;;;1.99;100.00;102171.56;2010918;29;20112;-60
2022/02/23 03:06:54;;;;;;;11.77;2.70;;;;;;;2.00;100.00;102168.16;2010977;29;20029;-60
2022/02/23 03:07:54;;;;;;;11.17;2.80;;;;;;;2.05;100.00;102169.09;2017963;29;20503;-59
2022/02/23 03:08:55;;;;;;;11.23;2.37;;;;;;;2.05;100.00;102166.50;2018083;29;20028;-60
2022/02/23 03:09:56;;;;;;;8.70;2.38;;;;;;;2.08;100.00;102175.16;2011053;29;20499;-60
2022/02/23 03:10:56;;;;;;;9.90;2.27;;;;;;;2.05;100.00;102171.66;2011022;29;20467;-60
2022/02/23 03:11:56;;;;;;;3.77;1.70;;;;;;;2.05;100.00;102170.78;2011069;29;20032;-61
2022/02/23 03:12:56;;;;;;;11.90;3.73;;;;;;;2.05;100.00;102179.41;2011028;29;20543;-60
2022/02/23 03:13:57;;;;;;;9.70;2.40;;;;;;;2.04;100.00;102182.81;2011028;29;20029;-60
2022/02/23 03:14:57;;;;;;;5.60;2.40;;;;;;;2.02;100.00;102181.91;2011022;29;20135;-60
2022/02/23 03:15:57;;;;;;;9.00;1.97;;;;;;;2.01;100.00;102185.34;2010218;29;20395;-61
2022/02/23 03:16:57;;;;;;;10.10;2.40;;;;;;;1.98;100.00;102180.16;2010424;29;20415;-61
2022/02/23 03:17:58;;;;;;;6.93;3.27;;;;;;;1.95;100.00;102190.38;2011000;29;20108;-61
2022/02/23 03:18:58;;;;;;;13.67;2.30;;;;;;;1.90;100.00;102186.88;2011030;29;20028;-61
2022/02/23 03:19:58;;;;;;;8.13;2.00;;;;;;;1.88;100.00;102189.44;2017984;29;20891;-61
2022/02/23 03:20:59;;;;;;;8.80;2.30;;;;;;;1.88;100.00;102186.84;2018084;29;20116;-62
2022/02/23 03:22:00;;;;;;;7.07;2.28;;;;;;;1.87;100.00;102186.84;2011001;29;20116;-62
2022/02/23 03:23:00;;;;;;;11.87;2.47;;;;;;;1.83;100.00;102190.19;2010986;29;20084;-61
2022/02/23 03:24:00;;;;;;;8.47;1.87;;;;;;;1.77;100.00;102193.53;2010919;29;20036;-62
2022/02/23 03:25:02;;;;;;;6.20;2.37;;;;;;;1.73;100.00;102194.34;2010976;29;20029;-62
2022/02/23 03:26:03;;;;;;;;;;;;;;;1.72;100.00;102198.63;2011369;29;20376;-61
2022/02/23 03:27:03;;;;;;;8.57;1.58;;;;;;;1.73;100.00;102192.63;2017921;29;19994;-62
2022/02/23 03:28:03;;;;;;;6.80;1.83;;;;;;;1.72;100.00;102198.63;2017969;29;20025;-62
2022/02/23 03:29:04;;;;;;;8.00;2.07;;;;;;;1.75;100.00;102193.50;2010940;29;20029;-61
2022/02/23 03:30:05;;;;;;;8.93;1.87;;;;;;;1.73;100.00;102197.78;2010974;29;20032;-61
2022/02/23 03:31:06;;;;;;;12.40;2.80;;;;;;;1.69;100.00;102200.28;2010927;29;20026;-62
2022/02/23 03:32:07;;;;;;;10.70;2.38;;;;;;;1.62;100.00;102201.88;2010878;29;20026;-62
2022/02/23 03:33:09;;;;;;;4.15;1.88;;;;;;;1.57;100.00;102203.53;2010925;29;20039;-61
2022/02/23 03:34:09;;;;;;;7.55;1.77;;;;;;;1.50;100.00;102208.56;2010856;29;20049;-61
2022/02/23 03:35:10;;;;;;;10.07;2.20;;;;;;;1.47;100.00;102203.34;2017894;29;20020;-61
2022/02/23 03:36:15;;;;;;;6.32;1.98;;;;;;;1.44;100.00;102211.03;2017903;29;20032;-62
2022/02/23 03:37:16;;;;;;;9.10;2.38;;;;;;;1.44;100.00;102208.47;2010889;29;20113;-61
2022/02/23 03:38:16;;;;;;;9.93;2.70;;;;;;;1.49;100.00;102206.81;2017877;29;20025;-61
2022/02/23 03:39:16;;;;;;;7.37;2.70;;;;;;;1.49;100.00;102204.25;2017959;29;20110;-60
2022/02/23 03:40:16;;;;;;;10.23;1.87;;;;;;;1.47;100.00;102205.91;2010835;29;20033;-60
2022/02/23 03:41:17;;;;;;;10.07;2.20;;;;;;;1.45;100.00;102210.19;2010851;29;20476;-61
2022/02/23 03:42:17;;;;;;;8.23;1.93;;;;;;;1.41;100.00;102208.41;2010133;29;20052;-61
2022/02/23 03:43:17;;;;;;;9.27;2.07;;;;;;;1.37;100.00;102214.34;2010283;29;20045;-61
2022/02/23 03:44:18;;;;;;;8.30;1.97;;;;;;;1.41;100.00;102209.25;2010810;29;20294;-61
2022/02/23 03:45:19;;;;;;;8.73;2.00;;;;;;;1.43;100.00;102211.84;2010793;29;20029;-61
2022/02/23 03:46:19;;;;;;;6.10;1.45;;;;;;;1.42;100.00;102210.13;2010770;29;20081;-61
2022/02/23 03:47:20;;;;;;;7.30;2.10;;;;;;;1.36;100.00;102210.00;2010663;29;20120;-61
2022/02/23 03:48:20;;;;;;;7.57;2.33;;;;;;;1.36;100.00;102205.75;2010834;29;20423;-61
2022/02/23 03:49:20;;;;;;;6.53;1.60;;;;;;;1.36;100.00;102207.44;2010785;29;20030;-61
2022/02/23 03:50:21;;;;;;;5.00;2.10;;;;;;;1.34;100.00;102211.69;2010855;29;20548;-61
2022/02/23 03:51:21;;;;;;;8.60;1.70;;;;;;;1.32;100.00;102208.22;2010671;29;20021;-62
2022/02/23 03:52:21;;;;;;;10.83;2.00;;;;;;;1.34;100.00;102211.69;2010804;29;20034;-61
2022/02/23 03:53:22;;;;;;;6.07;1.93;;;;;;;1.31;100.00;102214.22;2010791;29;20033;-62
2022/02/23 03:54:22;;;;;;;12.30;2.03;;;;;;;1.25;100.00;102215.84;2017834;29;20479;-62
2022/02/23 03:55:22;;;;;;;9.80;2.20;;;;;;;1.22;100.00;102223.50;2017876;29;20355;-62
2022/02/23 03:56:38;;;;;;;8.07;2.23;;;;;;;1.17;100.00;102219.09;2010716;29;20523;-61
2022/02/23 03:57:38;;;;;;;13.32;2.13;;;;;;;1.13;100.00;102216.47;2010779;29;20026;-62
2022/02/23 03:58:38;;;;;;;6.13;1.73;;;;;;;1.13;100.00;102224.16;2010782;29;20078;-62
2022/02/23 03:59:39;;;;;;;7.80;2.37;;;;;;;1.15;100.00;102224.22;2010771;29;20033;-62
2022/02/23 04:00:39;;;;;;;5.83;1.60;;;;;;;1.15;100.00;102221.63;2010765;29;20060;-62
2022/02/23 04:01:41;;;;;;;14.57;5.50;;;;;;;1.14;100.00;102227.63;2017776;29;20534;-61
2022/02/23 04:02:43;;;;;;;5.95;1.92;;;;;;;1.15;100.00;102217.38;2016942;29;20473;-62
2022/02/23 04:03:43;;;;;;;7.35;2.30;;;;;;;1.13;100.00;102225.91;2009961;29;20029;-62
2022/02/23 04:04:43;;;;;;;8.33;2.93;;;;;;;1.12;100.00;102231.84;2010183;29;20022;-62
2022/02/23 04:05:44;;;;;;;7.67;1.67;;;;;;;1.08;100.00;102236.09;2010740;29;20053;-62
2022/02/23 04:06:45;;;;;;;7.23;2.17;;;;;;;1.05;100.00;102236.00;2010702;29;20045;-62
2022/02/23 04:07:47;;;;;;;;;;;;;;;1.08;100.00;102232.63;2011119;29;20396;-61
2022/02/23 04:08:47;;;;;;;8.18;1.60;;;;;;;1.09;100.00;102235.25;2010721;29;20006;-62
2022/02/23 04:09:48;;;;;;;6.07;2.10;;;;;;;1.10;100.00;102239.53;2017726;29;20037;-62
2022/02/23 04:10:48;;;;;;;8.18;1.80;;;;;;;1.08;100.00;102235.22;2017762;29;20036;-62
2022/02/23 04:11:48;;;;;;;11.23;2.43;;;;;;;1.09;100.00;102236.97;2010730;29;20037;-62
2022/02/23 04:12:49;;;;;;;9.63;1.90;;;;;;;1.10;100.00;102238.69;2010697;29;20054;-62
2022/02/23 04:13:50;;;;;;;8.95;2.67;;;;;;;1.08;100.00;102240.34;2010665;29;20245;-62
2022/02/23 04:14:50;;;;;;;5.57;2.47;;;;;;;1.07;100.00;102243.75;2010654;29;20085;-61
2022/02/23 04:15:50;;;;;;;6.93;2.17;;;;;;;1.08;100.00;102246.38;2010593;29;20033;-62
2022/02/23 04:16:51;;;;;;;5.17;2.00;;;;;;;1.07;100.00;102248.91;2010575;29;20294;-62
2022/02/23 04:17:51;;;;;;;7.50;2.10;;;;;;;1.06;100.00;102250.59;2010691;29;20108;-61
2022/02/23 04:18:52;;;;;;;6.30;2.20;;;;;;;1.07;100.00;102252.34;2010712;29;20033;-62
2022/02/23 04:19:52;;;;;;;12.70;2.67;;;;;;;1.06;100.00;102247.19;2010573;29;20113;-62
2022/02/23 04:20:53;;;;;;;11.43;3.20;;;;;;;1.05;100.00;102256.59;2010558;29;20395;-62
2022/02/23 04:21:53;;;;;;;8.90;3.33;;;;;;;1.06;100.00;102252.31;2010570;29;20029;-62
2022/02/23 04:22:53;;;;;;;7.07;2.23;;;;;;;1.07;100.00;102254.06;2010531;29;20033;-62
2022/02/23 04:23:54;;;;;;;13.57;2.20;;;;;;;1.05;100.00;102258.28;2010533;29;20037;-62
2022/02/23 04:24:54;;;;;;;6.50;2.97;;;;;;;0.99;100.00;102262.47;2010534;29;20021;-62
2022/02/23 04:25:55;;;;;;;6.07;2.03;;;;;;;1.00;100.00;102259.06;2010526;29;20381;-61
2022/02/23 04:26:55;;;;;;;9.87;2.23;;;;;;;1.05;100.00;102255.72;2010489;29;20036;-61
2022/02/23 04:27:55;;;;;;;8.73;2.00;;;;;;;1.10;100.00;102254.13;2010433;29;20036;-61
2022/02/23 04:28:55;;;;;;;6.23;2.57;;;;;;;1.07;100.00;102254.06;2010490;29;20282;-61
2022/02/23 04:29:56;;;;;;;8.43;3.67;;;;;;;1.03;100.00;102259.13;2010492;29;20032;-61
2022/02/23 04:31:00;;;;;;;6.13;1.73;;;;;;;0.97;100.00;102266.72;2010509;29;20029;-60
2022/02/23 04:32:00;;;;;;;8.23;1.65;;;;;;;0.97;100.00;102264.16;2010442;29;20033;-61
2022/02/23 04:33:01;;;;;;;7.47;2.13;;;;;;;1.00;100.00;102264.19;2010457;29;20036;-61
2022/02/23 04:34:02;;;;;;;4.83;2.10;;;;;;;1.05;100.00;102260.84;2010485;29;20363;-60
2022/02/23 04:35:03;;;;;;;4.93;1.83;;;;;;;1.03;100.00;102269.41;2010446;29;20096;-61
2022/02/23 04:36:05;;;;;;;7.40;1.92;;;;;;;1.00;100.00;102264.19;2010379;29;20096;-61
2022/02/23 04:37:07;;;;;;;7.60;2.17;;;;;;;1.00;100.00;102269.34;2010436;29;20033;-60
2022/02/23 04:38:08;;;;;;;9.52;2.45;;;;;;;0.98;100.00;102265.88;2010454;29;20037;-60
2022/02/23 04:39:08;;;;;;;13.98;3.25;;;;;;;0.96;100.00;102264.97;2010432;29;20059;-60
2022/02/23 04:40:09;;;;;;;10.50;2.10;;;;;;;0.95;100.00;102260.69;2009763;29;20040;-61
2022/02/23 04:41:10;;;;;;;10.48;2.63;;;;;;;0.97;100.00;102277.00;2009806;29;20033;-60